sensor_id;sensor_type;location;lat;lon;timestamp;pressure;altitude;pressure_sealevel;temperature;humidity
76095;BME280;64821;13.710;100.604;2023-11-22T00:00:49;101150.09;;;40.85;27.67
76095;BME280;64821;13.710;100.604;2023-11-22T00:01:53;101157.25;;;40.86;27.61
76095;BME280;64821;13.710;100.604;2023-11-22T00:02:57;101161.59;;;40.84;27.52
76095;BME280;64821;13.710;100.604;2023-11-22T00:04:05;101133.56;;;40.70;28.36
76095;BME280;64821;13.710;100.604;2023-11-22T00:05:09;101156.09;;;40.87;27.63
76095;BME280;64821;13.710;100.604;2023-11-22T00:06:13;101162.16;;;40.93;27.78
76095;BME280;64821;13.710;100.604;2023-11-22T00:07:17;101166.94;;;40.96;27.65
76095;BME280;64821;13.710;100.604;2023-11-22T00:08:22;101172.13;;;40.97;28.03
76095;BME280;64821;13.710;100.604;2023-11-22T00:09:26;101174.63;;;41.02;27.34
76095;BME280;64821;13.710;100.604;2023-11-22T00:10:30;101175.03;;;41.04;27.62
76095;BME280;64821;13.710;100.604;2023-11-22T00:11:34;101165.88;;;41.04;27.33
76095;BME280;64821;13.710;100.604;2023-11-22T00:12:38;101178.38;;;41.14;27.43
76095;BME280;64821;13.710;100.604;2023-11-22T00:13:42;101178.81;;;41.16;27.30
76095;BME280;64821;13.710;100.604;2023-11-22T00:14:46;101174.03;;;41.13;27.60
76095;BME280;64821;13.710;100.604;2023-11-22T00:15:50;101151.06;;;40.96;27.28
76095;BME280;64821;13.710;100.604;2023-11-22T00:16:54;101180.44;;;41.17;27.69
76095;BME280;64821;13.710;100.604;2023-11-22T00:17:58;101156.69;;;41.00;27.75
76095;BME280;64821;13.710;100.604;2023-11-22T00:19:02;101180.88;;;41.19;27.75
76095;BME280;64821;13.710;100.604;2023-11-22T00:20:07;101190.06;;;41.23;27.87
76095;BME280;64821;13.710;100.604;2023-11-22T00:21:12;101171.25;;;41.13;27.55
76095;BME280;64821;13.710;100.604;2023-11-22T00:22:15;101194.50;;;41.27;27.14
76095;BME280;64821;13.710;100.604;2023-11-22T00:23:21;101190.13;;;41.26;27.55
76095;BME280;64821;13.710;100.604;2023-11-22T00:24:25;101195.38;;;41.31;27.37
76095;BME280;64821;13.710;100.604;2023-11-22T00:25:29;101195.41;;;41.35;27.42
76095;BME280;64821;13.710;100.604;2023-11-22T00:26:33;101198.19;;;41.35;27.32
76095;BME280;64821;13.710;100.604;2023-11-22T00:27:37;101186.91;;;41.24;27.32
76095;BME280;64821;13.710;100.604;2023-11-22T00:28:41;101198.25;;;41.38;27.34
76095;BME280;64821;13.710;100.604;2023-11-22T00:29:45;101206.50;;;41.31;27.49
76095;BME280;64821;13.710;100.604;2023-11-22T00:30:49;101195.63;;;41.23;27.53
76095;BME280;64821;13.710;100.604;2023-11-22T00:31:53;101204.53;;;41.32;27.32
76095;BME280;64821;13.710;100.604;2023-11-22T00:32:57;101207.84;;;41.41;27.53
76095;BME280;64821;13.710;100.604;2023-11-22T00:34:01;101211.78;;;41.40;27.42
76095;BME280;64821;13.710;100.604;2023-11-22T00:35:05;101211.34;;;41.38;27.47
76095;BME280;64821;13.710;100.604;2023-11-22T00:36:09;101219.59;;;41.31;27.33
76095;BME280;64821;13.710;100.604;2023-11-22T00:37:13;101210.47;;;41.34;27.44
76095;BME280;64821;13.710;100.604;2023-11-22T00:38:17;101216.91;;;41.38;27.21
76095;BME280;64821;13.710;100.604;2023-11-22T00:39:22;101176.69;;;41.09;27.74
76095;BME280;64821;13.710;100.604;2023-11-22T00:40:26;101230.88;;;41.42;27.72
76095;BME280;64821;13.710;100.604;2023-11-22T00:41:31;101228.03;;;41.38;27.44
76095;BME280;64821;13.710;100.604;2023-11-22T00:42:35;101236.81;;;41.40;27.09
76095;BME280;64821;13.710;100.604;2023-11-22T00:43:39;101227.53;;;41.55;26.80
76095;BME280;64821;13.710;100.604;2023-11-22T00:44:43;101234.69;;;41.53;27.23
76095;BME280;64821;13.710;100.604;2023-11-22T00:45:47;101231.50;;;41.54;27.42
76095;BME280;64821;13.710;100.604;2023-11-22T00:46:51;101235.09;;;41.55;27.09
76095;BME280;64821;13.710;100.604;2023-11-22T00:47:55;101233.47;;;41.54;27.08
76095;BME280;64821;13.710;100.604;2023-11-22T00:48:59;101240.28;;;41.56;27.35
76095;BME280;64821;13.710;100.604;2023-11-22T00:50:03;101242.25;;;41.56;26.96
76095;BME280;64821;13.710;100.604;2023-11-22T00:51:07;101230.69;;;41.54;27.24
76095;BME280;64821;13.710;100.604;2023-11-22T00:52:11;101237.59;;;41.63;26.86
76095;BME280;64821;13.710;100.604;2023-11-22T00:53:15;101240.81;;;41.65;27.24
76095;BME280;64821;13.710;100.604;2023-11-22T00:54:19;101203.13;;;41.45;27.06
76095;BME280;64821;13.710;100.604;2023-11-22T00:55:53;101244.38;;;41.92;27.98
76095;BME280;64821;13.710;100.604;2023-11-22T00:57:10;101250.41;;;41.94;27.04
76095;BME280;64821;13.710;100.604;2023-11-22T00:58:30;101244.69;;;42.14;27.65
76095;BME280;64821;13.710;100.604;2023-11-22T00:59:39;101245.19;;;42.19;26.18
76095;BME280;64821;13.710;100.604;2023-11-22T01:00:43;101246.00;;;42.23;26.38
76095;BME280;64821;13.710;100.604;2023-11-22T01:01:47;101246.78;;;42.20;26.77
76095;BME280;64821;13.710;100.604;2023-11-22T01:02:51;101251.06;;;42.14;26.31
76095;BME280;64821;13.710;100.604;2023-11-22T01:05:32;101258.91;;;42.35;26.53
76095;BME280;64821;13.710;100.604;2023-11-22T01:06:37;101255.41;;;42.38;26.53
76095;BME280;64821;13.710;100.604;2023-11-22T01:07:41;101257.41;;;42.41;26.24
76095;BME280;64821;13.710;100.604;2023-11-22T01:08:45;101256.28;;;42.45;26.10
76095;BME280;64821;13.710;100.604;2023-11-22T01:09:58;101267.00;;;42.43;25.99
76095;BME280;64821;13.710;100.604;2023-11-22T01:11:04;101255.03;;;42.39;26.36
76095;BME280;64821;13.710;100.604;2023-11-22T01:12:08;101267.03;;;42.47;26.55
76095;BME280;64821;13.710;100.604;2023-11-22T01:13:12;101265.09;;;42.51;26.35
76095;BME280;64821;13.710;100.604;2023-11-22T01:14:16;101260.81;;;42.57;26.25
76095;BME280;64821;13.710;100.604;2023-11-22T01:15:21;101248.72;;;42.46;26.18
76095;BME280;64821;13.710;100.604;2023-11-22T01:16:25;101250.03;;;42.56;26.25
76095;BME280;64821;13.710;100.604;2023-11-22T01:17:28;101266.06;;;42.66;26.25
76095;BME280;64821;13.710;100.604;2023-11-22T01:18:33;101264.34;;;42.54;25.83
76095;BME280;64821;13.710;100.604;2023-11-22T01:19:39;101258.31;;;42.49;26.61
76095;BME280;64821;13.710;100.604;2023-11-22T01:20:43;101262.31;;;42.51;26.54
76095;BME280;64821;13.710;100.604;2023-11-22T01:21:47;101262.72;;;42.53;26.54
76095;BME280;64821;13.710;100.604;2023-11-22T01:22:51;101266.66;;;42.49;26.13
76095;BME280;64821;13.710;100.604;2023-11-22T01:23:55;101266.28;;;42.50;26.59
76095;BME280;64821;13.710;100.604;2023-11-22T01:24:59;101267.94;;;42.55;26.45
76095;BME280;64821;13.710;100.604;2023-11-22T01:26:04;101235.00;;;42.34;26.21
76095;BME280;64821;13.710;100.604;2023-11-22T01:27:08;101246.16;;;42.34;26.28
76095;BME280;64821;13.710;100.604;2023-11-22T01:28:12;101264.31;;;42.51;26.16
76095;BME280;64821;13.710;100.604;2023-11-22T01:29:16;101271.44;;;42.48;26.40
76095;BME280;64821;13.710;100.604;2023-11-22T01:30:20;101263.78;;;42.41;26.31
76095;BME280;64821;13.710;100.604;2023-11-22T01:31:24;101235.75;;;42.27;26.17
76095;BME280;64821;13.710;100.604;2023-11-22T01:32:28;101266.69;;;42.52;26.26
76095;BME280;64821;13.710;100.604;2023-11-22T01:33:32;101272.09;;;42.38;26.29
76095;BME280;64821;13.710;100.604;2023-11-22T01:34:36;101260.44;;;42.32;26.85
76095;BME280;64821;13.710;100.604;2023-11-22T01:35:40;101262.88;;;42.34;26.45
76095;BME280;64821;13.710;100.604;2023-11-22T01:36:44;101250.69;;;42.16;27.28
76095;BME280;64821;13.710;100.604;2023-11-22T01:37:48;101275.03;;;42.22;26.61
76095;BME280;64821;13.710;100.604;2023-11-22T01:38:52;101265.88;;;42.22;26.91
76095;BME280;64821;13.710;100.604;2023-11-22T01:39:56;101251.13;;;42.18;26.83
76095;BME280;64821;13.710;100.604;2023-11-22T01:41:00;101269.22;;;42.31;26.94
76095;BME280;64821;13.710;100.604;2023-11-22T01:42:06;101268.41;;;42.30;27.12
76095;BME280;64821;13.710;100.604;2023-11-22T01:43:13;101270.13;;;42.38;26.56
76095;BME280;64821;13.710;100.604;2023-11-22T01:44:17;101270.63;;;42.47;26.48
76095;BME280;64821;13.710;100.604;2023-11-22T01:45:21;101223.34;;;42.21;26.62
76095;BME280;64821;13.710;100.604;2023-11-22T01:46:25;101255.03;;;42.43;26.48
76095;BME280;64821;13.710;100.604;2023-11-22T01:47:29;101258.81;;;42.58;26.29
76095;BME280;64821;13.710;100.604;2023-11-22T01:48:33;101276.03;;;42.67;26.10
76095;BME280;64821;13.710;100.604;2023-11-22T01:49:38;101269.31;;;42.71;26.04
76095;BME280;64821;13.710;100.604;2023-11-22T01:50:42;101273.66;;;42.69;26.43
76095;BME280;64821;13.710;100.604;2023-11-22T01:51:46;101282.06;;;42.72;26.38
76095;BME280;64821;13.710;100.604;2023-11-22T01:52:50;101261.34;;;42.70;26.04
76095;BME280;64821;13.710;100.604;2023-11-22T01:53:56;101272.44;;;42.66;26.56
76095;BME280;64821;13.710;100.604;2023-11-22T01:55:01;101274.50;;;42.73;26.12
76095;BME280;64821;13.710;100.604;2023-11-22T01:56:05;101279.78;;;42.78;26.65
76095;BME280;64821;13.710;100.604;2023-11-22T01:57:12;101279.16;;;42.95;26.18
76095;BME280;64821;13.710;100.604;2023-11-22T01:58:16;101271.72;;;43.10;25.72
76095;BME280;64821;13.710;100.604;2023-11-22T01:59:20;101267.44;;;43.19;25.92
76095;BME280;64821;13.710;100.604;2023-11-22T02:00:25;101266.41;;;43.35;25.89
76095;BME280;64821;13.710;100.604;2023-11-22T02:01:31;101266.16;;;43.54;25.52
76095;BME280;64821;13.710;100.604;2023-11-22T02:02:35;101265.09;;;43.66;25.48
76095;BME280;64821;13.710;100.604;2023-11-22T02:03:40;101271.09;;;43.68;25.33
76095;BME280;64821;13.710;100.604;2023-11-22T02:04:44;101268.16;;;43.53;25.24
76095;BME280;64821;13.710;100.604;2023-11-22T02:05:48;101270.50;;;43.48;25.72
76095;BME280;64821;13.710;100.604;2023-11-22T02:06:53;101267.31;;;43.49;25.27
76095;BME280;64821;13.710;100.604;2023-11-22T02:07:58;101275.66;;;43.49;25.71
76095;BME280;64821;13.710;100.604;2023-11-22T02:09:02;101266.44;;;43.42;25.16
76095;BME280;64821;13.710;100.604;2023-11-22T02:10:07;101262.44;;;43.36;25.62
76095;BME280;64821;13.710;100.604;2023-11-22T02:11:11;101267.69;;;43.44;25.39
76095;BME280;64821;13.710;100.604;2023-11-22T02:12:17;101271.66;;;43.43;25.29
76095;BME280;64821;13.710;100.604;2023-11-22T02:13:21;101272.88;;;43.49;25.39
76095;BME280;64821;13.710;100.604;2023-11-22T02:14:25;101277.66;;;43.49;25.44
76095;BME280;64821;13.710;100.604;2023-11-22T02:15:29;101275.66;;;43.49;25.13
76095;BME280;64821;13.710;100.604;2023-11-22T02:16:33;101276.47;;;43.50;25.34
76095;BME280;64821;13.710;100.604;2023-11-22T02:17:37;101276.16;;;43.59;25.57
76095;BME280;64821;13.710;100.604;2023-11-22T02:18:41;101275.41;;;43.62;25.51
76095;BME280;64821;13.710;100.604;2023-11-22T02:19:46;101270.66;;;43.66;25.47
76095;BME280;64821;13.710;100.604;2023-11-22T02:20:50;101269.88;;;43.69;25.65
76095;BME280;64821;13.710;100.604;2023-11-22T02:21:54;101281.81;;;43.66;25.71
76095;BME280;64821;13.710;100.604;2023-11-22T02:23:07;101272.66;;;43.65;25.87
76095;BME280;64821;13.710;100.604;2023-11-22T02:24:12;101282.28;;;43.75;25.45
76095;BME280;64821;13.710;100.604;2023-11-22T02:25:16;101284.22;;;43.67;25.62
76095;BME280;64821;13.710;100.604;2023-11-22T02:26:19;101287.03;;;43.67;25.74
76095;BME280;64821;13.710;100.604;2023-11-22T02:27:23;101274.66;;;43.68;25.15
76095;BME280;64821;13.710;100.604;2023-11-22T02:28:27;101283.47;;;43.74;25.45
76095;BME280;64821;13.710;100.604;2023-11-22T02:29:31;101273.47;;;43.69;25.01
76095;BME280;64821;13.710;100.604;2023-11-22T02:30:35;101282.72;;;43.80;25.09
76095;BME280;64821;13.710;100.604;2023-11-22T02:31:42;101281.53;;;43.81;26.01
76095;BME280;64821;13.710;100.604;2023-11-22T02:32:46;101283.13;;;43.82;25.33
76095;BME280;64821;13.710;100.604;2023-11-22T02:33:50;101283.50;;;43.77;25.23
76095;BME280;64821;13.710;100.604;2023-11-22T02:34:54;101258.66;;;43.58;25.66
76095;BME280;64821;13.710;100.604;2023-11-22T02:35:58;101261.88;;;43.64;25.21
76095;BME280;64821;13.710;100.604;2023-11-22T02:37:02;101287.88;;;43.78;25.46
76095;BME280;64821;13.710;100.604;2023-11-22T02:38:08;101281.09;;;43.79;25.45
76095;BME280;64821;13.710;100.604;2023-11-22T02:39:12;101279.91;;;43.80;25.15
76095;BME280;64821;13.710;100.604;2023-11-22T02:40:17;101283.09;;;43.79;25.10
76095;BME280;64821;13.710;100.604;2023-11-22T02:41:21;101282.72;;;43.80;25.39
76095;BME280;64821;13.710;100.604;2023-11-22T02:42:25;101287.13;;;43.85;25.29
76095;BME280;64821;13.710;100.604;2023-11-22T02:43:29;101278.75;;;43.85;24.98
76095;BME280;64821;13.710;100.604;2023-11-22T02:44:33;101281.97;;;43.90;25.07
76095;BME280;64821;13.710;100.604;2023-11-22T02:45:37;101283.25;;;43.97;24.82
76095;BME280;64821;13.710;100.604;2023-11-22T02:46:44;101282.47;;;44.00;24.91
76095;BME280;64821;13.710;100.604;2023-11-22T02:47:48;101285.31;;;44.07;24.84
76095;BME280;64821;13.710;100.604;2023-11-22T02:48:52;101276.94;;;44.07;25.07
76095;BME280;64821;13.710;100.604;2023-11-22T02:49:56;101282.97;;;44.16;24.92
76095;BME280;64821;13.710;100.604;2023-11-22T02:51:00;101278.47;;;44.01;25.12
76095;BME280;64821;13.710;100.604;2023-11-22T02:52:04;101278.06;;;43.95;25.21
76095;BME280;64821;13.710;100.604;2023-11-22T02:53:10;101279.66;;;43.96;24.72
76095;BME280;64821;13.710;100.604;2023-11-22T02:54:14;101276.81;;;43.92;25.00
76095;BME280;64821;13.710;100.604;2023-11-22T02:55:18;101273.63;;;43.94;25.15
76095;BME280;64821;13.710;100.604;2023-11-22T02:56:22;101274.88;;;43.97;24.67
76095;BME280;64821;13.710;100.604;2023-11-22T02:57:26;101263.75;;;44.04;24.79
76095;BME280;64821;13.710;100.604;2023-11-22T02:58:30;101274.19;;;44.21;24.48
76095;BME280;64821;13.710;100.604;2023-11-22T02:59:34;101270.22;;;44.22;24.65
76095;BME280;64821;13.710;100.604;2023-11-22T03:00:39;101272.25;;;44.32;24.52
76095;BME280;64821;13.710;100.604;2023-11-22T03:01:43;101271.88;;;44.34;24.50
76095;BME280;64821;13.710;100.604;2023-11-22T03:02:47;101276.69;;;44.40;24.74
76095;BME280;64821;13.710;100.604;2023-11-22T03:03:51;101256.75;;;44.42;24.03
76095;BME280;64821;13.710;100.604;2023-11-22T03:04:56;101267.53;;;44.47;24.21
76095;BME280;64821;13.710;100.604;2023-11-22T03:06:00;101263.56;;;44.44;24.10
76095;BME280;64821;13.710;100.604;2023-11-22T03:07:04;101270.31;;;44.36;24.07
76095;BME280;64821;13.710;100.604;2023-11-22T03:08:10;101264.69;;;44.33;23.62
76095;BME280;64821;13.710;100.604;2023-11-22T03:09:14;101258.34;;;44.39;23.81
76095;BME280;64821;13.710;100.604;2023-11-22T03:10:18;101264.25;;;44.31;24.01
76095;BME280;64821;13.710;100.604;2023-11-22T03:11:22;101261.06;;;44.28;24.31
76095;BME280;64821;13.710;100.604;2023-11-22T03:12:26;101269.47;;;44.32;24.18
76095;BME280;64821;13.710;100.604;2023-11-22T03:13:30;101255.94;;;44.34;24.15
76095;BME280;64821;13.710;100.604;2023-11-22T03:14:33;101252.78;;;44.43;23.97
76095;BME280;64821;13.710;100.604;2023-11-22T03:15:38;101255.59;;;44.50;23.72
76095;BME280;64821;13.710;100.604;2023-11-22T03:16:42;101257.59;;;44.46;23.65
76095;BME280;64821;13.710;100.604;2023-11-22T03:17:46;101245.59;;;44.42;24.06
76095;BME280;64821;13.710;100.604;2023-11-22T03:18:50;101247.59;;;44.45;23.92
76095;BME280;64821;13.710;100.604;2023-11-22T03:19:54;101248.78;;;44.47;23.99
76095;BME280;64821;13.710;100.604;2023-11-22T03:20:58;101251.22;;;44.52;23.93
76095;BME280;64821;13.710;100.604;2023-11-22T03:22:02;101248.38;;;44.42;23.79
76095;BME280;64821;13.710;100.604;2023-11-22T03:23:06;101256.28;;;44.29;24.26
76095;BME280;64821;13.710;100.604;2023-11-22T03:24:11;101249.84;;;44.21;23.67
76095;BME280;64821;13.710;100.604;2023-11-22T03:25:15;101248.66;;;44.22;24.40
76095;BME280;64821;13.710;100.604;2023-11-22T03:26:19;101249.09;;;44.28;24.14
76095;BME280;64821;13.710;100.604;2023-11-22T03:27:23;101258.72;;;44.34;23.83
76095;BME280;64821;13.710;100.604;2023-11-22T03:28:27;101263.06;;;44.32;23.20
76095;BME280;64821;13.710;100.604;2023-11-22T03:29:31;101252.69;;;44.32;23.76
76095;BME280;64821;13.710;100.604;2023-11-22T03:30:35;101253.13;;;44.38;23.47
76095;BME280;64821;13.710;100.604;2023-11-22T03:31:39;101261.94;;;44.43;23.60
76095;BME280;64821;13.710;100.604;2023-11-22T03:32:43;101251.19;;;44.49;23.81
76095;BME280;64821;13.710;100.604;2023-11-22T03:33:47;101247.63;;;44.59;23.79
76095;BME280;64821;13.710;100.604;2023-11-22T03:34:51;101247.22;;;44.46;23.58
76095;BME280;64821;13.710;100.604;2023-11-22T03:35:55;101245.56;;;44.38;23.82
76095;BME280;64821;13.710;100.604;2023-11-22T03:36:59;101234.00;;;44.40;23.47
76095;BME280;64821;13.710;100.604;2023-11-22T03:38:03;101245.63;;;44.52;23.62
76095;BME280;64821;13.710;100.604;2023-11-22T03:39:07;101248.03;;;44.54;23.48
76095;BME280;64821;13.710;100.604;2023-11-22T03:40:13;101244.78;;;44.48;22.92
76095;BME280;64821;13.710;100.604;2023-11-22T03:41:17;101246.41;;;44.53;23.67
76095;BME280;64821;13.710;100.604;2023-11-22T03:42:21;101240.44;;;44.58;23.49
76095;BME280;64821;13.710;100.604;2023-11-22T03:43:25;101237.66;;;44.61;23.59
76095;BME280;64821;13.710;100.604;2023-11-22T03:44:29;101236.47;;;44.70;23.44
76095;BME280;64821;13.710;100.604;2023-11-22T03:45:33;101239.31;;;44.73;23.24
76095;BME280;64821;13.710;100.604;2023-11-22T03:46:37;101236.91;;;44.79;23.48
76095;BME280;64821;13.710;100.604;2023-11-22T03:47:41;101233.34;;;44.89;22.99
76095;BME280;64821;13.710;100.604;2023-11-22T03:48:45;101230.97;;;44.94;22.74
76095;BME280;64821;13.710;100.604;2023-11-22T03:49:49;101218.16;;;44.83;23.11
76095;BME280;64821;13.710;100.604;2023-11-22T03:50:53;101226.16;;;44.91;23.21
76095;BME280;64821;13.710;100.604;2023-11-22T03:51:57;101216.19;;;44.94;23.12
76095;BME280;64821;13.710;100.604;2023-11-22T03:53:00;101218.56;;;44.99;23.18
76095;BME280;64821;13.710;100.604;2023-11-22T03:54:05;101214.56;;;44.96;22.76
76095;BME280;64821;13.710;100.604;2023-11-22T03:55:11;101217.78;;;44.95;23.19
76095;BME280;64821;13.710;100.604;2023-11-22T03:56:15;101219.38;;;44.92;22.94
76095;BME280;64821;13.710;100.604;2023-11-22T03:57:19;101212.97;;;44.92;23.05
76095;BME280;64821;13.710;100.604;2023-11-22T03:58:23;101216.56;;;44.99;23.07
76095;BME280;64821;13.710;100.604;2023-11-22T03:59:26;101208.16;;;45.07;22.81
76095;BME280;64821;13.710;100.604;2023-11-22T04:00:31;101213.41;;;45.12;22.65
76095;BME280;64821;13.710;100.604;2023-11-22T04:01:35;101208.19;;;44.99;22.81
76095;BME280;64821;13.710;100.604;2023-11-22T04:02:39;101213.38;;;45.08;22.99
76095;BME280;64821;13.710;100.604;2023-11-22T04:03:43;101201.78;;;45.10;23.18
76095;BME280;64821;13.710;100.604;2023-11-22T04:04:47;101204.59;;;45.10;22.91
76095;BME280;64821;13.710;100.604;2023-11-22T04:05:51;101202.59;;;45.03;22.95
76095;BME280;64821;13.710;100.604;2023-11-22T04:06:55;101205.78;;;44.98;23.02
76095;BME280;64821;13.710;100.604;2023-11-22T04:07:59;101195.78;;;44.83;23.05
76095;BME280;64821;13.710;100.604;2023-11-22T04:09:03;101198.22;;;44.95;22.84
76095;BME280;64821;13.710;100.604;2023-11-22T04:10:07;101187.41;;;44.97;22.94
76095;BME280;64821;13.710;100.604;2023-11-22T04:11:13;101194.25;;;45.14;22.66
76095;BME280;64821;13.710;100.604;2023-11-22T04:12:17;101185.44;;;45.19;22.77
76095;BME280;64821;13.710;100.604;2023-11-22T04:13:22;101181.03;;;45.28;22.70
76095;BME280;64821;13.710;100.604;2023-11-22T04:14:26;101187.41;;;45.40;22.45
76095;BME280;64821;13.710;100.604;2023-11-22T04:15:30;101182.63;;;45.51;22.52
76095;BME280;64821;13.710;100.604;2023-11-22T04:16:35;101178.59;;;45.48;22.37
76095;BME280;64821;13.710;100.604;2023-11-22T04:17:39;101183.00;;;45.49;22.54
76095;BME280;64821;13.710;100.604;2023-11-22T04:18:44;101188.63;;;45.49;22.14
76095;BME280;64821;13.710;100.604;2023-11-22T04:19:48;101188.19;;;45.47;22.33
76095;BME280;64821;13.710;100.604;2023-11-22T04:20:52;101177.00;;;45.47;22.40
76095;BME280;64821;13.710;100.604;2023-11-22T04:21:56;101183.41;;;45.51;22.46
76095;BME280;64821;13.710;100.604;2023-11-22T04:23:00;101175.81;;;45.38;22.48
76095;BME280;64821;13.710;100.604;2023-11-22T04:24:05;101181.38;;;45.45;21.88
76095;BME280;64821;13.710;100.604;2023-11-22T04:25:09;101168.22;;;45.52;22.26
76095;BME280;64821;13.710;100.604;2023-11-22T04:26:15;101153.41;;;45.48;21.81
76095;BME280;64821;13.710;100.604;2023-11-22T04:27:19;101165.78;;;45.61;22.14
76095;BME280;64821;13.710;100.604;2023-11-22T04:28:23;101164.19;;;45.60;22.14
76095;BME280;64821;13.710;100.604;2023-11-22T04:29:27;101157.38;;;45.65;22.29
76095;BME280;64821;13.710;100.604;2023-11-22T04:30:31;101162.16;;;45.68;21.92
76095;BME280;64821;13.710;100.604;2023-11-22T04:31:35;101159.41;;;45.57;22.52
76095;BME280;64821;13.710;100.604;2023-11-22T04:32:39;101161.00;;;45.55;21.91
76095;BME280;64821;13.710;100.604;2023-11-22T04:33:43;101151.81;;;45.58;22.44
76095;BME280;64821;13.710;100.604;2023-11-22T04:34:47;101156.19;;;45.59;22.48
76095;BME280;64821;13.710;100.604;2023-11-22T04:35:51;101151.84;;;45.54;21.66
76095;BME280;64821;13.710;100.604;2023-11-22T04:36:55;101151.41;;;45.45;22.09
76095;BME280;64821;13.710;100.604;2023-11-22T04:37:59;101140.22;;;45.49;22.34
76095;BME280;64821;13.710;100.604;2023-11-22T04:39:03;101144.63;;;45.53;22.18
76095;BME280;64821;13.710;100.604;2023-11-22T04:40:07;101139.00;;;45.60;21.86
76095;BME280;64821;13.710;100.604;2023-11-22T04:41:13;101137.81;;;45.61;21.70
76095;BME280;64821;13.710;100.604;2023-11-22T04:42:17;101136.63;;;45.59;21.91
76095;BME280;64821;13.710;100.604;2023-11-22T04:43:22;101138.59;;;45.58;22.17
76095;BME280;64821;13.710;100.604;2023-11-22T04:44:26;101134.63;;;45.59;21.91
76095;BME280;64821;13.710;100.604;2023-11-22T04:45:30;101126.63;;;45.58;21.91
76095;BME280;64821;13.710;100.604;2023-11-22T04:46:34;101131.81;;;45.56;22.03
76095;BME280;64821;13.710;100.604;2023-11-22T04:47:38;101127.41;;;45.55;21.76
76095;BME280;64821;13.710;100.604;2023-11-22T04:48:42;101128.22;;;45.48;22.30
76095;BME280;64821;13.710;100.604;2023-11-22T04:49:46;101129.84;;;45.39;21.93
76095;BME280;64821;13.710;100.604;2023-11-22T04:50:50;101094.72;;;45.09;22.34
76095;BME280;64821;13.710;100.604;2023-11-22T04:51:54;101108.69;;;45.27;22.48
76095;BME280;64821;13.710;100.604;2023-11-22T04:52:57;101110.28;;;45.28;22.06
76095;BME280;64821;13.710;100.604;2023-11-22T04:54:01;101097.09;;;45.28;22.16
76095;BME280;64821;13.710;100.604;2023-11-22T04:55:06;101107.88;;;45.44;22.27
76095;BME280;64821;13.710;100.604;2023-11-22T04:56:10;101101.06;;;45.42;21.96
76095;BME280;64821;13.710;100.604;2023-11-22T04:57:15;101097.50;;;45.34;21.94
76095;BME280;64821;13.710;100.604;2023-11-22T04:58:19;101080.31;;;45.28;21.89
76095;BME280;64821;13.710;100.604;2023-11-22T04:59:23;101095.84;;;45.47;22.19
76095;BME280;64821;13.710;100.604;2023-11-22T05:00:27;101096.66;;;45.41;22.10
76095;BME280;64821;13.710;100.604;2023-11-22T05:01:32;101096.25;;;45.46;21.89
76095;BME280;64821;13.710;100.604;2023-11-22T05:02:37;101055.53;;;45.30;21.50
76095;BME280;64821;13.710;100.604;2023-11-22T05:03:41;101082.28;;;45.53;21.80
76095;BME280;64821;13.710;100.604;2023-11-22T05:04:45;101074.69;;;45.43;21.96
76095;BME280;64821;13.710;100.604;2023-11-22T05:05:49;101086.25;;;45.45;22.15
76095;BME280;64821;13.710;100.604;2023-11-22T05:06:54;101079.47;;;45.49;22.02
76095;BME280;64821;13.710;100.604;2023-11-22T05:07:58;101041.13;;;45.39;21.76
76095;BME280;64821;13.710;100.604;2023-11-22T05:09:02;101076.25;;;45.58;21.83
76095;BME280;64821;13.710;100.604;2023-11-22T05:10:06;101071.03;;;45.60;21.47
76095;BME280;64821;13.710;100.604;2023-11-22T05:11:10;101074.25;;;45.55;21.73
76095;BME280;64821;13.710;100.604;2023-11-22T05:12:16;101059.50;;;45.51;21.64
76095;BME280;64821;13.710;100.604;2023-11-22T05:13:20;101056.66;;;45.58;21.87
76095;BME280;64821;13.710;100.604;2023-11-22T05:14:24;101060.59;;;45.67;21.70
76095;BME280;64821;13.710;100.604;2023-11-22T05:15:28;101057.81;;;45.67;21.51
76095;BME280;64821;13.710;100.604;2023-11-22T05:16:32;101059.00;;;45.70;21.69
76095;BME280;64821;13.710;100.604;2023-11-22T05:17:36;101042.66;;;45.61;21.64
76095;BME280;64821;13.710;100.604;2023-11-22T05:18:40;101049.78;;;45.73;21.68
76095;BME280;64821;13.710;100.604;2023-11-22T05:19:44;101051.34;;;45.74;21.83
76095;BME280;64821;13.710;100.604;2023-11-22T05:20:48;101055.00;;;45.71;21.57
76095;BME280;64821;13.710;100.604;2023-11-22T05:21:52;101052.94;;;45.79;21.55
76095;BME280;64821;13.710;100.604;2023-11-22T05:22:56;101048.50;;;45.85;21.44
76095;BME280;64821;13.710;100.604;2023-11-22T05:23:59;101040.13;;;45.88;21.46
76095;BME280;64821;13.710;100.604;2023-11-22T05:25:04;101042.50;;;45.93;21.79
76095;BME280;64821;13.710;100.604;2023-11-22T05:26:08;101036.47;;;45.98;21.43
76095;BME280;64821;13.710;100.604;2023-11-22T05:27:12;101034.47;;;45.99;21.53
76095;BME280;64821;13.710;100.604;2023-11-22T05:28:17;101032.81;;;46.05;20.93
76095;BME280;64821;13.710;100.604;2023-11-22T05:29:21;101030.41;;;46.03;21.57
76095;BME280;64821;13.710;100.604;2023-11-22T05:30:27;101021.66;;;46.01;21.30